Holiday, California
Current Conditions -  °F | °C
As of 9:53 AM on Friday 24 Oct 2014 (Local Time) from KFUL Reporting Station
Clear Clear  
Wind Chill: 76°   Ceiling: Unl
Heat Index: 76°   Visibility: 10mi
Dew Point: 46°   Wind: 6mph
Humidity: 35%   Direction: 110°ESE
Pressure: 29.98"   Gusts: NA
Location:  33.8084°N, 117.923°W
Report Text: KFUL 241653Z 11005KT 10SM CLR 24/08 A2998 RMK AO2 SLP152 T02440078
Loading
Personal Weather Stations






























Interactive Weather Map
Tropical Storm Tracking
New forecast layout! Learn more

10-Day Weather Forecast

Advertisements
Track Severe Weather on mobile